Beverly Hills, West Virginia
Current Conditions -  °F | °C
As of 3:51 PM on Wednesday 26 Nov 2014 (Local Time) from KHTS Reporting Station
Broken Clouds Broken Clouds  
Wind Chill: 44°   Ceiling: 3300
Heat Index: 44°   Visibility: 10mi
Dew Point: 31°   Wind: 3mph
Humidity: 60%   Direction: NA
Pressure: 30"   Gusts: NA
Location:  38.4038°N, 82.3597°W
Report Text: KHTS 262051Z VRB03KT 10SM BKN033 07/M01 A3000 RMK AO2 SLP162 T00671006 55010
Loading
Personal Weather Stations






























Interactive Weather Map New forecast layout! Learn more

10-Day Weather Forecast

Advertisements
Track Severe Weather on mobile